Time;durP1;ratioP1;P1;durP2;ratioP2;P2;SDS_P1;SDS_P2;PMS_P1;PMS_P2;Temp;Humidity;BMP_temperature;BMP_pressure;BME280_temperature;BME280_humidity;BME280_pressure;Samples;Min_cycle;Max_cycle;Signal;HPM_P1;HPM_P2
2023/01/12 00:02:15;;;;;;;3.83;1.37;;;6.40;74.70;;;;;;5016227;28;46339;-61
2023/01/12 00:04:41;;;;;;;3.07;1.67;;;6.20;74.70;;;;;;5011605;28;46428;-62
2023/01/12 00:07:08;;;;;;;4.20;1.90;;;6.00;74.50;;;;;;5010400;28;46427;-63
2023/01/12 00:09:35;;;;;;;5.17;2.13;;;5.90;74.50;;;;;;5014189;28;46475;-61
2023/01/12 00:12:04;;;;;;;4.20;1.97;;;5.80;74.30;;;;;;5010884;28;47178;-61
2023/01/12 00:14:33;;;;;;;5.27;2.67;;;5.70;74.30;;;;;;5006050;28;46526;-62
2023/01/12 00:16:59;;;;;;;8.37;2.30;;;5.60;74.20;;;;;;5014658;28;46410;-62
2023/01/12 00:19:24;;;;;;;4.83;2.13;;;5.50;74.10;;;;;;5015523;28;46449;-62
2023/01/12 00:24:33;;;;;;;4.50;2.30;;;5.40;74.70;;;;;;5006849;28;46280;-61
2023/01/12 00:27:00;;;;;;;5.20;2.07;;;5.30;74.70;;;;;;5011785;28;46455;-61
2023/01/12 00:29:27;;;;;;;4.57;2.50;;;5.20;74.80;;;;;;5010622;28;46510;-62
2023/01/12 00:31:53;;;;;;;9.23;2.93;;;5.20;74.80;;;;;;5010718;28;47054;-62
2023/01/12 00:34:19;;;;;;;6.70;2.90;;;5.20;74.80;;;;;;5009047;28;46431;-62
2023/01/12 00:36:46;;;;;;;6.37;2.43;;;5.10;74.70;;;;;;5011934;28;46441;-62
2023/01/12 00:39:13;;;;;;;7.73;2.40;;;5.10;74.80;;;;;;5016314;28;46584;-62
2023/01/12 00:47:09;;;;;;;4.60;2.67;;;4.90;74.60;;;;;;5007542;28;46403;-62
2023/01/12 00:49:36;;;;;;;12.30;3.20;;;4.80;74.60;;;;;;5012658;28;46560;-62
2023/01/12 00:52:02;;;;;;;6.67;2.23;;;4.70;74.70;;;;;;5010480;28;46307;-62
2023/01/12 00:54:28;;;;;;;8.80;2.50;;;4.60;74.70;;;;;;5008656;28;46400;-61
2023/01/12 00:56:53;;;;;;;9.63;3.17;;;4.60;74.80;;;;;;5011676;28;46438;-63
2023/01/12 00:59:19;;;;;;;10.73;2.43;;;4.60;74.90;;;;;;5013357;28;45915;-62
2023/01/12 01:01:45;;;;;;;16.33;2.50;;;4.50;74.70;;;;;;5009186;28;46972;-63
2023/01/12 01:04:10;;;;;;;5.87;2.27;;;4.50;74.70;;;;;;5012742;28;46430;-63
2023/01/12 01:06:37;;;;;;;8.60;2.83;;;4.50;74.70;;;;;;5010751;28;46446;-63
2023/01/12 01:09:03;;;;;;;10.33;3.00;;;4.50;74.70;;;;;;5012595;28;46348;-63
2023/01/12 01:11:29;;;;;;;12.57;3.03;;;4.50;74.70;;;;;;5010600;28;47204;-63
2023/01/12 01:13:55;;;;;;;4.10;2.23;;;4.40;74.80;;;;;;5010150;28;46389;-62
2023/01/12 01:16:20;;;;;;;4.80;2.33;;;4.40;74.80;;;;;;5011186;28;46592;-62
2023/01/12 01:18:46;;;;;;;7.27;2.07;;;4.40;74.80;;;;;;5008272;28;46279;-63
2023/01/12 01:21:13;;;;;;;8.23;2.20;;;4.50;74.80;;;;;;5012703;28;46989;-62
2023/01/12 01:23:40;;;;;;;6.73;2.20;;;4.50;74.80;;;;;;5012675;28;46276;-61
2023/01/12 01:26:09;;;;;;;5.70;2.33;;;4.50;74.80;;;;;;5013129;28;46473;-63
2023/01/12 01:28:35;;;;;;;9.03;2.23;;;4.50;74.80;;;;;;5011642;28;46485;-62
2023/01/12 01:31:09;;;;;;;6.57;2.17;;;4.50;74.90;;;;;;5011392;28;46874;-62
2023/01/12 01:33:35;;;;;;;12.80;2.17;;;4.60;75.10;;;;;;5007152;28;46355;-62
2023/01/12 01:36:01;;;;;;;5.93;1.90;;;4.60;74.80;;;;;;5013058;28;45917;-62
2023/01/12 01:38:26;;;;;;;7.27;2.10;;;4.60;74.90;;;;;;5012660;28;46522;-62
2023/01/12 01:40:52;;;;;;;10.40;2.67;;;4.50;74.80;;;;;;5012777;28;46365;-61
2023/01/12 01:43:20;;;;;;;6.70;1.60;;;4.50;74.80;;;;;;5014935;28;47635;-62
2023/01/12 01:45:57;;;;;;;13.20;1.90;;;4.50;74.80;;;;;;5014776;28;46458;-62
2023/01/12 01:48:26;;;;;;;3.07;1.60;;;4.50;74.90;;;;;;5013133;28;46440;-61
2023/01/12 01:50:57;;;;;;;10.43;1.57;;;4.50;75.00;;;;;;5017092;28;46355;-63
2023/01/12 01:53:27;;;;;;;15.80;2.83;;;4.50;74.90;;;;;;5017903;28;46411;-62
2023/01/12 01:56:01;;;;;;;8.50;1.77;;;4.50;74.80;;;;;;5011491;28;46406;-62
2023/01/12 01:58:35;;;;;;;13.87;2.00;;;4.50;74.80;;;;;;5014624;28;46307;-61
2023/01/12 02:01:01;;;;;;;9.43;2.00;;;4.50;74.70;;;;;;5016620;28;49865;-63
2023/01/12 02:03:27;;;;;;;12.67;1.70;;;4.60;74.70;;;;;;5012030;28;45853;-62
2023/01/12 02:05:55;;;;;;;6.20;2.00;;;4.60;74.50;;;;;;5018465;28;46407;-62
2023/01/12 02:08:42;;;;;;;11.13;1.67;;;4.60;74.60;;;;;;5014272;28;46603;-61
2023/01/12 02:16:19;;;;;;;8.67;1.87;;;4.60;74.60;;;;;;5014030;28;47045;-62
2023/01/12 02:17:04;;;;;;;5.23;1.50;;;4.60;74.50;;;;;;5012883;28;46526;-63
2023/01/12 02:19:51;;;;;;;8.00;1.50;;;4.60;74.40;;;;;;5014838;28;46497;-63
2023/01/12 02:22:54;;;;;;;5.87;1.93;;;4.60;74.40;;;;;;5012693;28;47911;-61
2023/01/12 02:25:38;;;;;;;15.90;1.60;;;4.60;74.30;;;;;;5012644;28;46347;-62
2023/01/12 02:28:30;;;;;;;10.33;1.70;;;4.60;74.10;;;;;;5013428;28;46490;-62
2023/01/12 02:31:30;;;;;;;12.50;2.00;;;4.60;74.00;;;;;;5011562;28;46296;-62
2023/01/12 02:34:20;;;;;;;9.33;1.60;;;4.70;73.90;;;;;;5017152;28;47319;-62
2023/01/12 02:36:55;;;;;;;9.93;1.63;;;4.70;73.80;;;;;;5008408;28;46430;-64
2023/01/12 02:39:42;;;;;;;14.03;1.40;;;4.70;73.50;;;;;;5015361;28;46465;-63
2023/01/12 02:42:41;;;;;;;9.17;1.50;;;4.70;73.50;;;;;;5015133;28;46455;-62
2023/01/12 02:45:41;;;;;;;4.97;1.17;;;4.80;73.50;;;;;;5012724;28;46231;-63
2023/01/12 02:48:34;;;;;;;9.33;1.60;;;4.80;73.50;;;;;;5015337;28;46260;-63
2023/01/12 02:51:13;;;;;;;11.80;2.20;;;4.80;73.50;;;;;;5010627;28;46390;-63
2023/01/12 02:53:48;;;;;;;5.70;1.63;;;4.80;73.50;;;;;;5011749;28;46392;-63
2023/01/12 02:56:21;;;;;;;8.63;1.60;;;4.80;73.50;;;;;;5012438;28;47488;-62
2023/01/12 02:58:54;;;;;;;12.23;1.70;;;4.80;73.50;;;;;;5010015;28;47140;-62
2023/01/12 03:01:22;;;;;;;11.30;1.50;;;4.80;73.50;;;;;;5013974;28;47173;-62
2023/01/12 03:03:49;;;;;;;5.87;1.30;;;4.80;73.50;;;;;;5009085;28;46420;-62
2023/01/12 03:06:17;;;;;;;6.77;1.60;;;4.80;73.50;;;;;;5015759;28;47071;-62
2023/01/12 03:08:43;;;;;;;3.63;1.57;;;4.80;73.70;;;;;;5011274;28;46505;-62
2023/01/12 03:11:21;;;;;;;4.10;1.30;;;4.70;73.60;;;;;;5013804;28;46493;-63
2023/01/12 03:13:54;;;;;;;8.83;1.60;;;4.70;73.90;;;;;;5010851;28;46386;-63
2023/01/12 03:16:23;;;;;;;10.63;1.30;;;4.70;73.90;;;;;;5014264;28;48106;-62
2023/01/12 03:18:55;;;;;;;5.90;1.13;;;4.70;73.90;;;;;;5008000;28;46496;-63
2023/01/12 03:21:29;;;;;;;4.70;1.20;;;4.70;74.00;;;;;;5009925;28;46378;-61
2023/01/12 03:24:11;;;;;;;3.60;1.40;;;4.70;74.00;;;;;;5010075;28;46450;-62
2023/01/12 03:26:41;;;;;;;5.00;1.37;;;4.60;74.00;;;;;;5011753;28;46402;-62
2023/01/12 03:29:13;;;;;;;6.67;1.20;;;4.60;74.10;;;;;;5012580;28;46431;-62
2023/01/12 03:31:40;;;;;;;3.87;1.10;;;4.60;75.30;;;;;;5008854;28;45880;-62
2023/01/12 03:34:07;;;;;;;6.80;1.90;;;4.60;74.10;;;;;;5012693;28;46569;-61
2023/01/12 03:36:41;;;;;;;7.33;1.23;;;4.60;74.10;;;;;;5012058;28;46944;-62
2023/01/12 03:39:20;;;;;;;4.47;1.70;;;4.60;75.30;;;;;;5013324;28;45936;-64
2023/01/12 03:41:56;;;;;;;5.77;1.33;;;4.60;74.10;;;;;;5011627;28;45902;-62
2023/01/12 03:44:49;;;;;;;4.90;0.90;;;4.50;74.10;;;;;;5013000;28;46493;-63
2023/01/12 03:47:25;;;;;;;4.00;1.10;;;4.50;74.00;;;;;;5011626;28;47243;-62
2023/01/12 03:50:14;;;;;;;6.67;1.30;;;4.50;73.80;;;;;;5019591;28;46383;-62
2023/01/12 03:52:42;;;;;;;4.50;1.77;;;4.50;73.90;;;;;;5007408;28;46150;-61
2023/01/12 03:55:11;;;;;;;4.30;1.40;;;4.50;73.70;;;;;;5011329;28;46350;-62
2023/01/12 03:57:38;;;;;;;4.67;1.50;;;4.50;73.20;;;;;;5010232;28;46512;-62
2023/01/12 04:00:08;;;;;;;9.10;1.40;;;4.50;73.30;;;;;;5013638;28;46389;-62
2023/01/12 04:02:34;;;;;;;4.93;1.13;;;4.50;73.20;;;;;;5011612;28;46676;-62
2023/01/12 04:04:59;;;;;;;8.20;1.30;;;4.50;73.20;;;;;;5014258;28;46408;-63
2023/01/12 04:07:25;;;;;;;8.33;1.43;;;4.50;73.20;;;;;;5013228;28;46517;-62
2023/01/12 04:09:51;;;;;;;6.80;1.20;;;4.60;73.30;;;;;;5010436;28;46661;-61
2023/01/12 04:12:17;;;;;;;3.23;1.27;;;4.50;73.20;;;;;;5008237;28;45872;-61
2023/01/12 04:14:44;;;;;;;4.93;1.07;;;4.50;73.20;;;;;;5014945;28;46494;-62
2023/01/12 04:17:14;;;;;;;13.63;1.77;;;4.50;73.20;;;;;;5007286;28;46327;-63
2023/01/12 04:19:40;;;;;;;8.00;1.30;;;4.50;73.30;;;;;;5011040;28;46496;-62
2023/01/12 04:24:51;;;;;;;10.40;1.30;;;4.50;73.20;;;;;;5014214;28;46430;-62
2023/01/12 04:27:17;;;;;;;4.10;1.10;;;4.60;73.30;;;;;;5011245;28;47173;-62
2023/01/12 04:29:43;;;;;;;7.10;3.40;;;4.60;73.30;;;;;;5009395;28;46378;-62
2023/01/12 04:32:10;;;;;;;11.03;1.50;;;4.50;73.20;;;;;;5011194;28;46347;-62
2023/01/12 04:34:36;;;;;;;2.70;1.00;;;4.50;73.20;;;;;;5016415;28;45916;-63
2023/01/12 04:37:02;;;;;;;3.40;1.23;;;4.60;73.30;;;;;;5012337;28;47184;-63
2023/01/12 04:39:28;;;;;;;3.37;1.10;;;4.40;73.20;;;;;;5010892;28;45754;-63
2023/01/12 04:41:54;;;;;;;5.97;1.30;;;4.40;73.10;;;;;;5012110;28;46387;-63
2023/01/12 04:44:19;;;;;;;4.60;1.37;;;4.40;73.20;;;;;;5011275;28;46306;-62
2023/01/12 04:46:47;;;;;;;4.97;1.00;;;4.40;74.30;;;;;;5006816;28;47087;-62
2023/01/12 04:49:13;;;;;;;5.93;1.10;;;4.50;73.20;;;;;;5008714;28;45811;-62
2023/01/12 04:51:38;;;;;;;6.53;1.50;;;4.50;73.20;;;;;;5010410;28;46503;-62
2023/01/12 04:54:04;;;;;;;9.10;1.60;;;4.40;73.20;;;;;;5008855;28;45871;-62
2023/01/12 04:56:30;;;;;;;5.80;1.27;;;4.40;73.10;;;;;;5014914;28;46205;-62
2023/01/12 04:58:59;;;;;;;11.90;1.63;;;4.40;73.20;;;;;;5011280;28;46312;-62
2023/01/12 05:01:26;;;;;;;6.43;1.43;;;4.40;73.10;;;;;;5010628;28;46810;-61
2023/01/12 05:03:54;;;;;;;2.90;1.00;;;4.30;73.10;;;;;;5005216;28;45920;-62
2023/01/12 05:06:21;;;;;;;2.30;1.33;;;4.30;73.10;;;;;;5010541;28;48103;-61
2023/01/12 05:11:30;;;;;;;12.17;1.87;;;4.30;73.10;;;;;;5009393;28;46404;-61
2023/01/12 05:13:56;;;;;;;5.30;1.20;;;4.20;73.00;;;;;;5007416;28;45928;-63
2023/01/12 05:16:23;;;;;;;4.30;1.47;;;4.20;72.90;;;;;;5008173;28;46449;-63
2023/01/12 05:18:49;;;;;;;4.90;1.10;;;4.20;73.00;;;;;;5003582;28;46489;-62
2023/01/12 05:21:16;;;;;;;8.60;1.83;;;4.20;72.90;;;;;;5009341;28;46444;-62
2023/01/12 05:23:45;;;;;;;6.23;1.50;;;4.20;73.00;;;;;;5009814;28;46515;-63
2023/01/12 05:26:11;;;;;;;3.40;1.20;;;4.20;72.90;;;;;;5011624;28;47155;-63
2023/01/12 05:28:37;;;;;;;10.13;1.40;;;4.10;72.90;;;;;;5009981;28;46436;-63
2023/01/12 05:31:06;;;;;;;8.47;1.33;;;4.10;72.90;;;;;;5015004;28;46395;-64
2023/01/12 05:33:32;;;;;;;3.70;1.50;;;4.10;72.90;;;;;;5013632;28;46596;-63
2023/01/12 05:35:57;;;;;;;10.40;1.10;;;4.10;72.90;;;;;;5006997;28;46500;-61
2023/01/12 05:38:23;;;;;;;3.43;1.33;;;4.10;72.90;;;;;;5010768;28;46416;-60
2023/01/12 05:40:49;;;;;;;6.90;1.37;;;4.10;72.90;;;;;;5008279;28;46456;-63
2023/01/12 05:46:04;;;;;;;10.00;1.03;;;4.00;72.80;;;;;;5009010;28;46390;-64
2023/01/12 05:48:30;;;;;;;8.57;1.23;;;4.00;72.80;;;;;;5010376;28;46527;-64
2023/01/12 05:51:03;;;;;;;4.80;1.53;;;4.10;72.90;;;;;;5012983;28;45819;-64
2023/01/12 05:53:29;;;;;;;9.27;1.50;;;4.10;72.90;;;;;;5013671;28;46385;-64
2023/01/12 05:55:55;;;;;;;5.60;1.53;;;4.10;72.90;;;;;;5008635;28;46666;-64
2023/01/12 05:58:21;;;;;;;7.63;1.40;;;4.10;72.90;;;;;;5025364;28;46444;-64
2023/01/12 06:00:47;;;;;;;7.13;1.57;;;4.30;73.00;;;;;;5011502;28;46721;-64
2023/01/12 06:03:12;;;;;;;6.43;1.60;;;4.30;72.70;;;;;;5012289;28;46371;-65
2023/01/12 06:05:38;;;;;;;6.30;0.90;;;4.30;72.40;;;;;;5010687;28;46447;-64
2023/01/12 06:08:03;;;;;;;3.50;1.23;;;4.30;72.20;;;;;;5008281;28;45860;-66
2023/01/12 06:10:29;;;;;;;7.13;1.40;;;4.40;72.10;;;;;;5013343;28;46446;-65
2023/01/12 06:15:39;;;;;;;7.20;1.20;;;4.50;71.80;;;;;;5012634;28;46391;-65
2023/01/12 06:18:05;;;;;;;6.47;1.40;;;4.50;71.70;;;;;;5009174;28;46375;-64
2023/01/12 06:20:31;;;;;;;3.20;1.20;;;4.50;71.60;;;;;;5010055;28;46400;-64
2023/01/12 06:23:01;;;;;;;7.73;1.43;;;4.50;71.60;;;;;;5009585;28;46325;-67
2023/01/12 06:25:28;;;;;;;6.93;1.30;;;4.60;71.70;;;;;;5008028;28;46379;-66
2023/01/12 06:27:54;;;;;;;6.30;1.07;;;4.50;71.70;;;;;;5012390;28;46449;-63
2023/01/12 06:30:20;;;;;;;4.40;1.70;;;4.60;71.70;;;;;;5014193;28;46576;-63
2023/01/12 06:32:46;;;;;;;8.03;1.10;;;4.60;71.60;;;;;;5013719;28;46585;-64
2023/01/12 06:35:12;;;;;;;5.17;1.60;;;4.70;71.50;;;;;;5013064;28;45979;-64
2023/01/12 06:37:40;;;;;;;6.10;1.33;;;4.70;71.40;;;;;;5010396;28;46406;-64
2023/01/12 06:40:07;;;;;;;9.53;1.50;;;4.70;71.40;;;;;;5013602;28;46446;-64
2023/01/12 06:42:32;;;;;;;6.07;1.40;;;4.70;71.40;;;;;;5013318;28;46433;-64
2023/01/12 06:45:02;;;;;;;3.00;1.10;;;4.70;71.30;;;;;;5013852;28;46456;-63
2023/01/12 06:47:29;;;;;;;13.47;1.90;;;4.70;71.30;;;;;;5014132;28;46366;-64
2023/01/12 06:49:55;;;;;;;5.43;1.00;;;4.80;71.40;;;;;;5013953;28;46574;-64
2023/01/12 06:52:23;;;;;;;3.23;1.03;;;4.80;71.40;;;;;;5013554;28;46341;-65
2023/01/12 06:54:49;;;;;;;3.60;1.10;;;4.70;71.10;;;;;;5014366;28;46183;-65
2023/01/12 06:57:15;;;;;;;8.57;1.67;;;4.70;71.20;;;;;;5009415;28;46525;-64
2023/01/12 06:59:41;;;;;;;4.47;1.73;;;4.80;71.20;;;;;;5008176;28;46364;-65
2023/01/12 07:02:11;;;;;;;8.60;1.57;;;4.80;71.20;;;;;;5014447;28;46411;-63
2023/01/12 07:04:37;;;;;;;5.73;2.03;;;4.80;71.10;;;;;;5013299;28;45942;-63
2023/01/12 07:07:03;;;;;;;4.93;1.00;;;4.90;71.10;;;;;;5012878;28;46364;-63
2023/01/12 07:09:28;;;;;;;7.10;2.47;;;4.90;70.90;;;;;;5015118;28;46330;-63
2023/01/12 07:11:54;;;;;;;11.80;2.50;;;4.90;70.80;;;;;;5018344;28;46033;-62
2023/01/12 07:14:20;;;;;;;8.70;2.37;;;5.00;70.60;;;;;;5012498;28;47189;-64
2023/01/12 07:16:45;;;;;;;8.20;2.10;;;5.00;70.40;;;;;;5013234;28;46446;-63
2023/01/12 07:19:11;;;;;;;3.43;1.20;;;5.10;70.30;;;;;;5015009;28;46371;-64
2023/01/12 07:21:36;;;;;;;3.10;1.30;;;5.20;70.00;;;;;;5025666;28;46750;-64
2023/01/12 07:24:02;;;;;;;6.80;1.30;;;5.20;69.70;;;;;;5009005;28;46468;-63
2023/01/12 07:26:28;;;;;;;2.93;1.20;;;5.30;69.60;;;;;;5012996;28;46443;-63
2023/01/12 07:28:55;;;;;;;6.10;1.20;;;5.40;69.30;;;;;;5014739;28;45784;-63
2023/01/12 07:31:20;;;;;;;8.07;1.70;;;5.50;69.30;;;;;;5010357;28;46563;-63
2023/01/12 07:33:46;;;;;;;5.20;1.37;;;5.50;69.10;;;;;;5009779;28;46860;-63
2023/01/12 07:36:12;;;;;;;10.23;1.80;;;5.60;69.00;;;;;;5013691;28;46405;-64
2023/01/12 07:38:37;;;;;;;5.17;1.20;;;5.70;68.70;;;;;;5012835;28;46368;-65
2023/01/12 07:41:03;;;;;;;5.60;1.60;;;5.80;68.40;;;;;;5011567;28;46681;-65
2023/01/12 07:43:32;;;;;;;4.03;1.10;;;6.00;68.00;;;;;;5014042;28;46968;-64
2023/01/12 07:45:58;;;;;;;25.47;10.20;;;6.10;67.60;;;;;;5011832;28;46414;-64
2023/01/12 07:48:25;;;;;;;11.47;3.10;;;6.20;67.50;;;;;;5013074;28;45767;-64
2023/01/12 07:50:51;;;;;;;6.03;1.20;;;6.20;67.60;;;;;;5014510;28;46503;-63
2023/01/12 07:53:17;;;;;;;3.60;1.10;;;6.20;67.70;;;;;;5011918;28;46986;-65
2023/01/12 07:55:43;;;;;;;3.47;1.00;;;6.20;67.80;;;;;;5008699;28;46502;-65
2023/01/12 07:58:09;;;;;;;3.57;1.03;;;6.20;67.70;;;;;;5012390;28;46386;-63
2023/01/12 08:00:35;;;;;;;3.17;1.33;;;6.30;67.70;;;;;;5013392;28;46441;-64
2023/01/12 08:03:09;;;;;;;10.07;2.17;;;6.40;67.50;;;;;;5011948;28;46461;-64
2023/01/12 08:05:35;;;;;;;4.33;0.90;;;6.50;67.30;;;;;;5005402;28;46362;-64
2023/01/12 08:08:01;;;;;;;4.00;1.30;;;6.50;66.90;;;;;;5013651;28;46367;-64
2023/01/12 08:10:27;;;;;;;3.77;1.20;;;6.60;66.60;;;;;;5012044;28;46439;-64
2023/01/12 08:12:53;;;;;;;8.00;1.07;;;6.70;66.40;;;;;;5009789;28;46634;-65
2023/01/12 08:15:19;;;;;;;3.13;1.60;;;6.80;66.20;;;;;;5009960;28;46343;-64
2023/01/12 08:17:50;;;;;;;5.23;0.97;;;6.80;65.90;;;;;;5014776;28;46491;-64
2023/01/12 08:20:26;;;;;;;8.53;1.10;;;6.90;65.80;;;;;;5012383;28;45856;-63
2023/01/12 08:22:55;;;;;;;7.17;1.47;;;7.00;65.50;;;;;;5011239;28;46486;-63
2023/01/12 08:25:26;;;;;;;4.83;1.30;;;7.10;65.30;;;;;;5006762;28;46415;-63
2023/01/12 08:27:54;;;;;;;8.20;1.83;;;7.20;65.00;;;;;;5010966;28;46582;-63
2023/01/12 08:30:22;;;;;;;9.63;1.83;;;7.40;64.70;;;;;;5011630;28;46355;-64
2023/01/12 08:32:48;;;;;;;2.77;1.13;;;7.50;64.10;;;;;;5009944;28;46454;-64
2023/01/12 08:35:18;;;;;;;3.77;1.63;;;7.60;63.80;;;;;;5010385;28;46524;-62
2023/01/12 08:37:44;;;;;;;5.93;1.60;;;7.70;63.40;;;;;;5009409;28;46572;-64
2023/01/12 08:40:10;;;;;;;5.80;1.13;;;7.80;63.50;;;;;;5011364;28;46508;-64
2023/01/12 08:42:36;;;;;;;7.00;1.30;;;7.90;63.30;;;;;;5011557;28;46477;-64
2023/01/12 08:45:05;;;;;;;6.27;1.43;;;7.90;62.80;;;;;;5013702;28;46382;-63
2023/01/12 08:47:31;;;;;;;8.70;1.40;;;8.00;62.70;;;;;;5009768;28;46398;-64
2023/01/12 08:49:59;;;;;;;7.40;1.37;;;8.00;62.50;;;;;;5008975;28;46367;-63
2023/01/12 08:52:28;;;;;;;11.90;1.10;;;8.00;62.20;;;;;;5014981;28;46636;-64
2023/01/12 08:54:54;;;;;;;7.00;1.67;;;8.10;62.10;;;;;;5009140;28;46499;-63
2023/01/12 08:57:20;;;;;;;5.07;1.57;;;8.20;62.00;;;;;;5009036;28;46403;-62
2023/01/12 08:59:46;;;;;;;14.13;1.80;;;8.30;61.30;;;;;;5014824;28;46645;-64
2023/01/12 09:02:12;;;;;;;2.80;1.17;;;8.30;61.00;;;;;;5011361;28;47111;-65
2023/01/12 09:04:39;;;;;;;3.40;1.30;;;8.50;60.70;;;;;;5010867;28;46349;-64
2023/01/12 09:07:05;;;;;;;6.93;1.47;;;8.50;60.40;;;;;;5009914;28;46284;-64
2023/01/12 09:09:31;;;;;;;5.27;1.13;;;8.50;60.30;;;;;;5013418;28;46530;-63
2023/01/12 09:11:57;;;;;;;6.40;1.43;;;8.60;60.10;;;;;;5009047;28;46837;-63
2023/01/12 09:14:24;;;;;;;7.20;1.37;;;8.50;60.00;;;;;;5011710;28;46426;-63
2023/01/12 09:16:50;;;;;;;5.70;1.77;;;8.60;59.90;;;;;;5013113;28;46433;-64
2023/01/12 09:19:15;;;;;;;11.47;1.00;;;8.50;59.10;;;;;;5026423;28;46298;-64
2023/01/12 09:21:42;;;;;;;6.60;1.27;;;8.40;58.60;;;;;;5012040;28;46354;-64
2023/01/12 09:24:08;;;;;;;3.70;0.93;;;8.50;58.30;;;;;;5013096;28;46452;-65
2023/01/12 09:26:39;;;;;;;7.03;1.30;;;8.40;57.80;;;;;;5009463;28;46684;-63
2023/01/12 09:29:06;;;;;;;3.90;1.20;;;8.40;57.70;;;;;;5012254;28;46429;-62
2023/01/12 09:31:33;;;;;;;6.00;1.47;;;8.40;57.60;;;;;;5009807;28;47048;-65
2023/01/12 09:33:59;;;;;;;5.50;1.20;;;8.50;57.30;;;;;;5009605;28;46355;-64
2023/01/12 09:36:31;;;;;;;7.23;1.27;;;8.60;56.90;;;;;;5012181;28;46431;-65
2023/01/12 09:38:57;;;;;;;5.10;1.20;;;8.70;56.50;;;;;;5009252;28;46739;-64
2023/01/12 09:47:31;;;;;;;6.50;1.10;;;8.80;55.60;;;;;;5008400;28;45776;-64
2023/01/12 09:50:05;;;;;;;7.90;1.93;;;8.90;54.90;;;;;;4997599;28;46593;-65
2023/01/12 09:52:36;;;;;;;4.13;1.10;;;9.00;54.50;;;;;;5009181;28;46429;-65
2023/01/12 09:55:02;;;;;;;8.90;1.10;;;9.00;53.90;;;;;;5009103;28;46443;-65
2023/01/12 09:58:05;;;;;;;6.30;1.00;;;9.20;53.60;;;;;;5010973;28;46353;-66
2023/01/12 10:00:31;;;;;;;5.03;1.07;;;9.30;52.90;;;;;;5008050;28;46297;-64
2023/01/12 10:03:09;;;;;;;7.80;1.27;;;9.40;52.90;;;;;;5010925;28;47091;-63
2023/01/12 10:05:48;;;;;;;3.50;1.10;;;9.40;52.40;;;;;;5015622;28;46438;-64
2023/01/12 10:08:28;;;;;;;7.17;1.20;;;9.40;52.20;;;;;;5011542;28;46439;-64
2023/01/12 10:11:15;;;;;;;4.43;1.47;;;9.50;52.20;;;;;;5017347;28;46583;-64
2023/01/12 10:14:24;;;;;;;3.23;0.90;;;9.60;52.30;;;;;;5015905;28;46439;-63
2023/01/12 10:16:59;;;;;;;7.50;1.43;;;9.60;52.20;;;;;;4951014;28;46486;-63
2023/01/12 10:19:24;;;;;;;2.00;0.90;;;9.60;52.30;;;;;;5014803;28;46383;-63
2023/01/12 10:21:52;;;;;;;4.07;1.10;;;9.60;52.30;;;;;;5013025;28;46455;-63
2023/01/12 10:24:21;;;;;;;5.13;0.90;;;9.60;51.80;;;;;;5010732;28;47410;-63
2023/01/12 10:26:54;;;;;;;3.60;0.93;;;9.60;52.00;;;;;;5011731;28;46461;-63
2023/01/12 10:29:20;;;;;;;8.10;1.20;;;9.60;52.00;;;;;;5012407;28;46398;-64
2023/01/12 10:31:46;;;;;;;8.23;1.20;;;9.60;51.80;;;;;;5009567;28;46687;-63
2023/01/12 10:34:11;;;;;;;4.37;0.93;;;9.50;52.00;;;;;;5013815;28;48069;-62
2023/01/12 10:36:47;;;;;;;5.80;1.30;;;9.50;51.70;;;;;;5011529;28;46279;-64
2023/01/12 10:39:34;;;;;;;3.00;1.10;;;9.50;51.30;;;;;;5014474;28;46409;-64
2023/01/12 10:45:12;;;;;;;5.27;1.20;;;9.50;51.00;;;;;;5007747;28;46500;-64
2023/01/12 10:47:38;;;;;;;4.47;1.00;;;9.60;50.50;;;;;;5012889;28;46441;-64
2023/01/12 10:50:28;;;;;;;2.50;1.00;;;9.60;50.60;;;;;;5010471;28;46451;-64
2023/01/12 10:52:59;;;;;;;3.93;1.00;;;9.60;49.60;;;;;;5012678;28;46413;-63
2023/01/12 10:55:30;;;;;;;4.07;1.07;;;9.50;49.80;;;;;;5013766;28;46327;-63
2023/01/12 10:57:56;;;;;;;3.40;1.20;;;9.60;49.80;;;;;;5016476;28;46398;-64
2023/01/12 11:00:25;;;;;;;7.50;1.10;;;9.60;48.80;;;;;;5013325;28;46521;-64
2023/01/12 11:02:51;;;;;;;5.27;1.00;;;9.60;49.20;;;;;;5013507;28;45849;-64
2023/01/12 11:05:33;;;;;;;3.63;0.90;;;9.60;49.00;;;;;;5010554;28;46444;-65
2023/01/12 11:08:00;;;;;;;5.70;1.00;;;9.70;49.00;;;;;;5015825;28;46669;-63
2023/01/12 11:10:37;;;;;;;1.40;0.73;;;9.70;49.10;;;;;;5012959;28;46272;-63
2023/01/12 11:13:04;;;;;;;9.57;1.37;;;9.60;48.50;;;;;;5011252;28;46541;-63
2023/01/12 11:15:37;;;;;;;2.20;0.80;;;9.60;48.80;;;;;;5014842;28;46465;-63
2023/01/12 11:18:07;;;;;;;4.33;1.07;;;9.60;48.80;;;;;;5012379;28;46810;-63
2023/01/12 11:20:43;;;;;;;3.10;1.23;;;9.40;47.70;;;;;;5008396;28;46450;-64
2023/01/12 11:23:42;;;;;;;3.77;0.93;;;9.30;48.00;;;;;;5009511;28;46641;-64
2023/01/12 11:26:22;;;;;;;6.50;1.40;;;9.40;48.30;;;;;;5010716;28;47252;-64
2023/01/12 11:28:53;;;;;;;4.17;1.17;;;9.40;48.30;;;;;;5011093;28;46484;-63
2023/01/12 11:31:24;;;;;;;10.40;1.40;;;9.30;47.60;;;;;;5018723;28;46445;-64
2023/01/12 11:34:02;;;;;;;2.93;1.00;;;9.30;49.00;;;;;;5014065;28;46450;-63
2023/01/12 11:36:37;;;;;;;3.33;0.90;;;9.40;47.60;;;;;;5011531;28;46622;-66
2023/01/12 11:39:14;;;;;;;5.40;1.00;;;9.40;47.70;;;;;;5009463;28;46598;-64
2023/01/12 11:44:47;;;;;;;2.73;0.80;;;9.40;47.50;;;;;;5012158;28;46307;-64
2023/01/12 11:47:19;;;;;;;4.53;1.20;;;9.40;47.30;;;;;;5014589;28;46028;-62
2023/01/12 11:50:04;;;;;;;2.80;0.90;;;9.40;47.70;;;;;;5014100;28;46510;-64
2023/01/12 11:52:30;;;;;;;5.53;2.03;;;9.40;47.40;;;;;;5018103;28;46346;-64
2023/01/12 11:54:56;;;;;;;4.53;1.20;;;9.40;47.60;;;;;;5011368;28;46432;-63
2023/01/12 11:57:50;;;;;;;2.50;0.90;;;9.40;47.60;;;;;;5010265;28;46434;-63
2023/01/12 12:00:36;;;;;;;11.83;1.57;;;9.40;47.30;;;;;;5011559;28;46454;-64
2023/01/12 12:03:39;;;;;;;7.60;1.30;;;9.40;47.40;;;;;;5007937;28;46596;-63
2023/01/12 12:06:28;;;;;;;5.13;1.10;;;9.40;47.50;;;;;;5012689;28;46466;-63
2023/01/12 12:09:12;;;;;;;9.47;1.97;;;9.30;47.20;;;;;;5011320;28;46438;-64
2023/01/12 12:11:43;;;;;;;6.53;1.33;;;9.30;47.50;;;;;;5012502;28;45831;-64
2023/01/12 12:14:28;;;;;;;5.90;1.33;;;9.20;47.50;;;;;;5010976;28;46436;-63
2023/01/12 12:17:12;;;;;;;5.37;1.37;;;9.30;47.50;;;;;;5007393;28;46522;-63
2023/01/12 12:19:44;;;;;;;6.10;1.23;;;9.30;47.50;;;;;;5010752;28;46417;-63
2023/01/12 12:22:31;;;;;;;3.50;1.03;;;9.30;47.60;;;;;;5012709;28;46436;-63
2023/01/12 12:25:04;;;;;;;4.17;1.13;;;9.30;47.50;;;;;;5009281;28;46605;-63
2023/01/12 12:27:46;;;;;;;6.40;1.20;;;9.30;47.60;;;;;;5005605;28;46547;-64
2023/01/12 12:30:27;;;;;;;4.03;1.30;;;9.40;47.60;;;;;;5010599;28;46227;-64
2023/01/12 12:33:27;;;;;;;3.30;0.97;;;9.40;47.60;;;;;;5011863;28;46346;-62
2023/01/12 12:36:22;;;;;;;5.23;1.10;;;9.40;47.50;;;;;;5012281;28;46304;-63
2023/01/12 12:39:07;;;;;;;2.80;1.00;;;9.40;47.40;;;;;;5013401;28;46561;-63
2023/01/12 12:47:51;;;;;;;1.77;0.93;;;9.40;47.50;;;;;;5009176;28;46461;-64
2023/01/12 12:50:17;;;;;;;8.23;1.10;;;9.30;47.30;;;;;;5008533;28;46362;-64
2023/01/12 12:52:46;;;;;;;4.27;1.10;;;9.30;47.40;;;;;;5010943;28;47374;-64
2023/01/12 12:55:12;;;;;;;4.70;1.13;;;9.40;47.70;;;;;;5009297;28;45954;-64
2023/01/12 12:57:57;;;;;;;3.40;0.93;;;9.40;47.70;;;;;;5008592;28;46508;-64
2023/01/12 13:00:29;;;;;;;10.23;1.30;;;9.40;47.20;;;;;;5007995;28;46489;-64
2023/01/12 13:02:57;;;;;;;2.30;1.40;;;9.40;47.40;;;;;;5011984;28;47019;-64
2023/01/12 13:05:39;;;;;;;4.00;1.53;;;9.40;47.40;;;;;;5011740;28;46456;-64
2023/01/12 13:08:19;;;;;;;3.87;1.00;;;9.40;47.50;;;;;;5010163;28;46643;-64
2023/01/12 13:10:54;;;;;;;3.03;1.57;;;9.40;47.60;;;;;;5005947;28;46402;-64
2023/01/12 13:13:27;;;;;;;4.10;1.10;;;9.40;47.50;;;;;;5010056;28;46475;-64
2023/01/12 13:16:17;;;;;;;5.73;1.70;;;9.50;47.60;;;;;;5006581;28;46335;-64
2023/01/12 13:18:49;;;;;;;3.03;1.10;;;9.50;47.50;;;;;;5010935;28;46461;-64
2023/01/12 13:21:30;;;;;;;2.90;1.10;;;9.50;47.60;;;;;;5007023;28;46517;-66
2023/01/12 13:24:14;;;;;;;3.80;1.13;;;9.50;47.70;;;;;;5010566;28;46485;-64
2023/01/12 13:26:50;;;;;;;2.60;1.20;;;9.50;47.70;;;;;;5009690;28;46699;-64
2023/01/12 13:29:22;;;;;;;4.50;0.90;;;9.40;47.80;;;;;;5011191;28;46690;-64
2023/01/12 13:31:54;;;;;;;3.40;1.00;;;9.40;47.80;;;;;;5011511;28;46401;-63
2023/01/12 13:34:35;;;;;;;3.17;1.00;;;9.30;47.90;;;;;;5012556;28;47063;-65
2023/01/12 13:37:06;;;;;;;3.23;1.07;;;9.30;48.10;;;;;;5014464;28;45816;-63
2023/01/12 13:39:36;;;;;;;2.80;1.13;;;9.30;48.10;;;;;;5016058;28;46480;-64
2023/01/12 13:44:50;;;;;;;2.37;1.20;;;9.30;48.10;;;;;;5011663;28;46446;-64
2023/01/12 13:47:25;;;;;;;2.83;0.90;;;9.30;48.00;;;;;;5009103;28;46489;-64
2023/01/12 13:49:57;;;;;;;1.93;0.80;;;9.30;47.90;;;;;;5015453;28;46313;-64
2023/01/12 13:52:34;;;;;;;3.20;1.30;;;9.30;48.00;;;;;;5013121;28;45903;-63
2023/01/12 13:55:01;;;;;;;2.37;0.90;;;9.30;47.90;;;;;;5008818;28;46390;-63
2023/01/12 13:57:30;;;;;;;8.70;2.13;;;9.30;47.90;;;;;;5013053;28;46381;-64
2023/01/12 14:00:09;;;;;;;6.57;1.47;;;9.20;48.00;;;;;;5015460;28;46708;-64